Time;durP1;ratioP1;P1;durP2;ratioP2;P2;SDS_P1;SDS_P2;PMS_P1;PMS_P2;Temp;Humidity;BMP_temperature;BMP_pressure;BME280_temperature;BME280_humidity;BME280_pressure;Samples;Min_cycle;Max_cycle;Signal;HPM_P1;HPM_P2
2023/07/13 00:00:25;;;;;;;1.63;1.10;;;21.80;59.60;;;21.92;51.87;97744.81;5036552;28;20961;-73
2023/07/13 00:02:53;;;;;;;1.57;1.20;;;21.90;59.50;;;21.75;52.53;97729.63;5020482;28;20451;-72
2023/07/13 00:05:23;;;;;;;1.50;1.23;;;21.80;59.70;;;21.68;52.72;97733.84;5070041;28;20552;-73
2023/07/13 00:07:51;;;;;;;1.53;1.13;;;21.70;59.80;;;21.66;52.65;97725.94;5030891;28;21052;-72
2023/07/13 00:10:19;;;;;;;1.60;1.50;;;21.70;59.70;;;21.68;52.68;97729.19;5037049;28;20847;-72
2023/07/13 00:12:46;;;;;;;1.37;1.00;;;21.70;59.90;;;21.49;53.12;97704.41;5027654;28;21177;-72
2023/07/13 00:15:17;;;;;;;1.50;1.20;;;21.60;60.20;;;21.58;53.19;97708.13;5043270;28;20929;-73
2023/07/13 00:17:45;;;;;;;2.13;1.53;;;21.50;60.30;;;21.37;53.36;97694.66;5032783;28;20535;-71
2023/07/13 00:20:13;;;;;;;1.90;1.67;;;21.40;60.30;;;21.40;53.45;97712.47;5041258;28;20502;-72
2023/07/13 00:22:41;;;;;;;1.50;1.40;;;21.40;60.40;;;21.22;53.49;97692.91;5028336;28;20529;-74
2023/07/13 00:25:11;;;;;;;1.27;1.17;;;21.40;60.50;;;21.33;53.62;97703.78;5030278;28;20449;-73
2023/07/13 00:27:39;;;;;;;1.07;0.97;;;21.40;60.50;;;21.25;53.76;97693.44;5028930;28;20474;-72
2023/07/13 00:30:08;;;;;;;1.70;1.47;;;21.30;60.50;;;20.98;54.04;97697.59;5032921;28;20473;-71
2023/07/13 00:32:36;;;;;;;2.20;1.17;;;21.20;60.50;;;21.08;54.14;97705.72;5047522;28;20557;-74
2023/07/13 00:35:04;;;;;;;1.60;1.30;;;21.10;60.90;;;21.03;54.28;97703.84;5036325;28;20499;-72
2023/07/13 00:37:32;;;;;;;2.07;1.27;;;21.10;61.00;;;21.05;54.22;97720.84;5027697;28;20928;-71
2023/07/13 00:40:01;;;;;;;1.70;1.10;;;21.00;61.20;;;21.05;53.88;97718.09;5038901;28;20449;-72
2023/07/13 00:42:28;;;;;;;1.60;1.47;;;21.10;61.00;;;20.89;54.17;97698.25;5034950;28;20552;-73
2023/07/13 00:45:53;;;;;;;1.93;1.10;;;21.10;61.00;;;21.12;54.24;97734.22;5034517;28;20445;-72
2023/07/13 00:48:25;;;;;;;2.00;1.50;;;21.00;61.20;;;21.06;54.17;97730.72;5033979;28;20555;-72
2023/07/13 00:50:57;;;;;;;1.33;1.03;;;21.00;61.20;;;21.08;54.14;97733.19;5041595;28;20458;-73
2023/07/13 00:53:27;;;;;;;1.97;1.43;;;21.10;61.50;;;21.18;53.72;97735.81;5026925;28;20515;-73
2023/07/13 00:55:57;;;;;;;1.30;1.10;;;21.20;61.20;;;21.16;53.87;97753.69;5027318;28;20527;-70
2023/07/13 00:58:26;;;;;;;4.50;1.50;;;21.10;61.10;;;20.99;54.26;97745.91;5067176;28;20451;-72
2023/07/13 01:00:53;;;;;;;1.27;1.17;;;21.00;61.20;;;20.88;54.45;97748.78;5028761;28;20466;-72
2023/07/13 01:03:21;;;;;;;2.13;1.70;;;20.90;61.20;;;20.94;53.64;97741.31;5028566;28;20450;-72
2023/07/13 01:05:50;;;;;;;1.20;1.10;;;21.00;61.00;;;20.83;53.73;97742.50;5042284;28;20451;-72
2023/07/13 01:08:18;;;;;;;1.43;1.33;;;20.90;60.90;;;20.69;53.91;97736.84;5028450;28;20470;-71
2023/07/13 01:10:53;;;;;;;1.30;1.20;;;20.80;60.80;;;20.43;53.81;97702.22;5026934;28;20437;-70
2023/07/13 01:13:22;;;;;;;1.33;1.23;;;20.80;60.60;;;20.64;53.88;97735.78;5063667;28;20612;-72
2023/07/13 01:15:52;;;;;;;1.47;1.10;;;20.70;60.70;;;20.64;54.03;97741.28;5022064;28;20474;-71
2023/07/13 01:18:24;;;;;;;1.63;1.40;;;20.60;61.00;;;20.62;54.47;97723.44;5026859;28;20473;-72
2023/07/13 01:20:57;;;;;;;1.97;1.40;;;20.60;61.30;;;20.55;54.04;97726.56;5024412;28;20474;-71
2023/07/13 01:23:27;;;;;;;1.20;1.10;;;20.50;61.00;;;20.36;54.48;97708.03;5032524;28;20556;-71
2023/07/13 01:26:07;;;;;;;1.70;1.30;;;20.50;61.00;;;20.28;54.71;97702.34;5027136;28;20457;-72
2023/07/13 01:28:36;;;;;;;1.37;1.13;;;20.40;61.40;;;20.32;54.06;97723.44;5027891;28;20474;-72
2023/07/13 01:31:04;;;;;;;2.17;1.40;;;20.30;60.90;;;20.19;54.81;97727.66;5027974;28;20800;-74
2023/07/13 01:33:31;;;;;;;3.00;1.50;;;20.20;61.30;;;20.23;55.28;97734.19;5038221;28;20448;-72
2023/07/13 01:36:02;;;;;;;1.60;1.50;;;20.10;61.80;;;20.21;55.68;97728.19;5029242;28;20934;-72
2023/07/13 01:38:29;;;;;;;2.60;1.40;;;20.10;62.60;;;20.01;56.19;97715.44;5028121;28;20449;-71
2023/07/13 01:40:56;;;;;;;1.77;1.30;;;20.10;62.40;;;20.08;56.04;97729.63;5028129;28;20461;-71
2023/07/13 01:43:24;;;;;;;3.03;1.33;;;20.10;62.70;;;19.87;56.25;97717.16;5027154;28;20469;-72
2023/07/13 01:45:51;;;;;;;1.40;1.30;;;20.00;62.70;;;19.95;55.54;97720.13;5051635;28;20453;-73
2023/07/13 01:48:18;;;;;;;1.60;1.40;;;20.00;62.10;;;19.71;55.92;97698.06;5027804;28;20485;-72
2023/07/13 01:50:46;;;;;;;2.60;1.30;;;19.90;62.20;;;19.72;55.95;97716.13;5030371;28;20466;-73
2023/07/13 01:53:15;;;;;;;3.40;1.67;;;19.90;61.90;;;19.66;56.23;97720.81;5031923;28;20939;-71
2023/07/13 01:55:43;;;;;;;1.30;1.20;;;19.80;62.20;;;19.60;56.02;97715.66;5025246;28;20445;-71
2023/07/13 01:58:10;;;;;;;1.47;1.33;;;19.80;62.50;;;19.55;56.27;97724.72;5038285;28;20552;-72
2023/07/13 02:00:37;;;;;;;7.40;1.63;;;19.60;62.50;;;19.49;56.44;97729.41;5023991;28;20489;-73
2023/07/13 02:03:05;;;;;;;3.33;1.77;;;19.60;62.40;;;19.45;56.45;97733.78;5026842;28;20462;-75
2023/07/13 02:05:32;;;;;;;1.53;1.10;;;19.50;62.50;;;19.45;56.52;97736.53;5053019;28;20511;-73
2023/07/13 02:07:59;;;;;;;1.60;1.37;;;19.50;62.50;;;19.56;56.35;97740.03;5028227;28;20473;-71
2023/07/13 02:10:29;;;;;;;1.57;1.40;;;19.60;62.50;;;19.42;56.20;97739.84;5028872;28;21124;-70
2023/07/13 02:12:56;;;;;;;2.33;1.50;;;19.50;62.50;;;18.99;56.25;97660.88;5031483;28;20961;-72
2023/07/13 02:15:23;;;;;;;2.83;1.20;;;19.50;62.40;;;19.38;56.30;97722.34;5043042;28;20457;-72
2023/07/13 02:17:50;;;;;;;1.60;1.47;;;19.50;62.40;;;19.39;56.26;97718.50;5026804;28;20852;-71
2023/07/13 02:20:17;;;;;;;1.60;1.33;;;19.50;62.50;;;19.35;56.31;97720.97;5026467;28;20551;-71
2023/07/13 02:22:45;;;;;;;1.67;1.50;;;19.50;62.60;;;19.31;56.84;97727.28;5026218;28;20451;-72
2023/07/13 02:25:12;;;;;;;1.30;1.20;;;19.40;62.90;;;19.32;56.55;97728.91;5026398;28;20451;-73
2023/07/13 02:27:40;;;;;;;2.00;1.27;;;19.40;63.00;;;19.21;56.87;97726.25;5035295;28;20463;-71
2023/07/13 02:30:09;;;;;;;2.20;1.30;;;19.30;63.00;;;18.91;56.69;97689.63;5043074;28;21015;-71
2023/07/13 02:32:36;;;;;;;2.27;1.30;;;19.30;62.90;;;19.08;57.10;97730.38;5029933;28;20503;-72
2023/07/13 02:35:05;;;;;;;1.87;1.50;;;19.20;63.10;;;19.11;56.97;97739.94;5032518;28;20438;-73
2023/07/13 02:37:32;;;;;;;1.77;1.30;;;19.20;62.80;;;19.03;56.92;97737.78;5035158;28;20517;-72
2023/07/13 02:40:00;;;;;;;1.30;1.20;;;19.20;63.20;;;18.87;57.36;97745.97;5025899;28;20468;-71
2023/07/13 02:42:27;;;;;;;2.17;1.17;;;19.10;63.10;;;18.80;57.67;97743.56;5027999;28;20495;-71
2023/07/13 02:44:56;;;;;;;1.37;1.20;;;19.00;63.20;;;18.82;57.79;97738.63;5026265;28;20450;-72
2023/07/13 02:47:23;;;;;;;1.50;1.40;;;18.90;63.50;;;18.68;57.77;97738.34;5026556;28;20571;-74
2023/07/13 02:49:50;;;;;;;1.53;1.30;;;18.90;63.50;;;18.47;58.08;97739.47;5025878;28;20459;-72
2023/07/13 02:52:18;;;;;;;2.33;1.23;;;18.80;63.50;;;18.58;58.48;97743.03;5023265;28;21141;-73
2023/07/13 02:54:45;;;;;;;2.97;1.20;;;18.80;63.90;;;18.65;58.36;97746.28;5025379;28;20539;-71
2023/07/13 02:57:12;;;;;;;1.23;1.10;;;18.70;64.10;;;18.00;58.44;97671.09;5042548;28;20848;-72
2023/07/13 02:59:40;;;;;;;2.43;1.70;;;18.70;64.20;;;18.49;58.79;97753.69;5026206;28;20450;-71
2023/07/13 03:02:09;;;;;;;1.60;1.37;;;18.60;64.30;;;18.36;59.17;97761.34;5052389;28;21156;-70
2023/07/13 03:04:37;;;;;;;1.50;1.20;;;18.60;64.50;;;18.34;58.92;97754.50;5028529;28;20458;-72
2023/07/13 03:07:05;;;;;;;1.83;1.10;;;18.60;64.50;;;18.27;59.12;97760.22;5025051;28;21049;-72
2023/07/13 03:09:34;;;;;;;1.43;1.33;;;18.50;64.40;;;18.28;58.75;97772.84;5024892;28;20568;-72
2023/07/13 03:12:02;;;;;;;1.93;1.37;;;18.50;64.50;;;18.24;59.02;97771.72;5029548;28;20503;-72
2023/07/13 03:14:30;;;;;;;2.07;1.87;;;18.40;64.70;;;18.24;59.01;97766.25;5029231;28;20541;-72
2023/07/13 03:16:57;;;;;;;2.20;1.50;;;18.40;64.80;;;18.07;58.96;97761.84;5024887;28;20454;-73
2023/07/13 03:19:26;;;;;;;1.40;1.30;;;18.30;64.70;;;18.04;59.35;97778.81;5027549;28;20458;-73
2023/07/13 03:21:53;;;;;;;1.93;1.73;;;18.20;64.60;;;18.10;58.97;97777.72;5030420;28;20469;-73
2023/07/13 03:24:23;;;;;;;2.27;1.50;;;18.20;64.70;;;18.03;58.89;97788.09;5030440;28;20511;-73
2023/07/13 03:26:50;;;;;;;2.13;1.30;;;18.20;64.50;;;18.08;58.74;97793.56;5026166;28;20454;-72
2023/07/13 03:29:17;;;;;;;1.43;1.33;;;18.20;64.50;;;17.99;58.87;97797.91;5031259;28;20580;-72
2023/07/13 03:31:45;;;;;;;2.30;1.33;;;18.20;64.60;;;17.98;58.70;97786.13;5025384;28;20496;-74
2023/07/13 03:34:12;;;;;;;1.67;1.57;;;18.20;64.60;;;17.84;58.79;97790.47;5025149;28;20461;-71
2023/07/13 03:36:41;;;;;;;2.00;1.37;;;18.20;64.40;;;17.77;58.87;97792.66;5026453;28;20450;-70
2023/07/13 03:39:10;;;;;;;1.60;1.40;;;18.10;64.40;;;17.89;58.64;97806.06;5026710;28;20458;-72
2023/07/13 03:41:37;;;;;;;1.70;1.37;;;18.10;64.50;;;17.80;58.73;97797.56;5038982;28;20945;-72
2023/07/13 03:44:05;;;;;;;1.43;1.13;;;18.10;64.50;;;17.86;58.83;97812.88;5032462;28;20465;-70
2023/07/13 03:46:33;;;;;;;2.00;1.27;;;18.10;64.50;;;17.85;58.73;97813.97;5029709;28;20520;-72
2023/07/13 03:49:00;;;;;;;1.53;1.30;;;18.10;64.40;;;17.88;58.34;97813.44;5030792;28;21099;-70
2023/07/13 03:51:28;;;;;;;3.00;1.63;;;18.10;64.10;;;17.89;58.12;97817.00;5037351;28;20466;-72
2023/07/13 03:53:56;;;;;;;1.63;1.27;;;18.10;64.10;;;17.91;58.28;97818.38;5030349;28;20921;-71
2023/07/13 03:56:24;;;;;;;1.90;1.60;;;18.10;64.30;;;17.90;58.16;97824.94;5051690;28;20515;-74
2023/07/13 03:58:52;;;;;;;2.70;1.87;;;18.10;64.00;;;17.83;57.93;97816.16;5022195;28;20523;-73
2023/07/13 04:01:22;;;;;;;3.37;1.80;;;18.10;63.70;;;17.93;57.66;97826.28;5023968;28;20453;-71
2023/07/13 04:03:50;;;;;;;1.63;1.53;;;18.10;63.70;;;17.91;57.69;97828.47;5022316;28;20450;-71
2023/07/13 04:06:21;;;;;;;2.07;1.10;;;18.10;63.60;;;17.90;57.85;97833.13;5029808;28;20451;-70
2023/07/13 04:08:51;;;;;;;1.87;1.30;;;18.10;63.40;;;17.99;57.21;97847.09;5028772;28;20824;-74
2023/07/13 04:11:21;;;;;;;1.50;1.40;;;18.20;63.80;;;18.08;56.86;97850.97;5050592;28;20496;-72
2023/07/13 04:13:49;;;;;;;2.40;1.30;;;18.30;63.20;;;18.14;56.44;97857.28;5030195;28;20441;-72
2023/07/13 04:16:17;;;;;;;1.47;1.10;;;18.40;62.90;;;18.14;56.25;97848.28;5027954;28;20454;-73
2023/07/13 04:18:45;;;;;;;1.50;1.40;;;18.40;62.70;;;18.24;55.88;97840.91;5029274;28;20469;-72
2023/07/13 04:21:13;;;;;;;1.40;1.30;;;18.50;62.50;;;18.34;55.71;97851.03;5040788;28;20951;-71
2023/07/13 04:23:41;;;;;;;2.50;1.43;;;18.50;62.50;;;18.43;55.19;97843.13;5045736;28;20947;-72
2023/07/13 04:26:09;;;;;;;2.00;1.50;;;18.60;62.30;;;18.48;55.29;97837.66;5028325;28;20449;-72
2023/07/13 04:28:37;;;;;;;1.50;1.27;;;18.60;62.10;;;18.47;55.07;97841.47;5027769;28;20535;-71
2023/07/13 04:31:04;;;;;;;1.73;1.33;;;18.70;62.00;;;18.54;54.96;97843.94;5028314;28;21154;-74
2023/07/13 04:33:32;;;;;;;2.10;1.37;;;18.70;62.00;;;18.90;54.08;97841.25;5029964;28;20850;-71
2023/07/13 04:36:01;;;;;;;1.43;1.27;;;19.00;61.70;;;19.22;52.92;97840.16;5067216;28;20486;-71
2023/07/13 04:38:31;;;;;;;1.57;1.47;;;19.40;61.00;;;19.19;53.03;97851.66;5031611;28;20536;-71
2023/07/13 04:41:01;;;;;;;2.30;1.53;;;19.50;60.70;;;19.60;52.38;97856.22;5027620;28;20944;-74
2023/07/13 04:43:30;;;;;;;1.40;1.30;;;19.70;60.70;;;19.32;52.72;97844.78;5043868;28;20468;-72
2023/07/13 04:46:06;;;;;;;1.53;1.33;;;19.70;60.40;;;19.24;52.59;97859.84;5030010;28;20854;-71
2023/07/13 04:48:34;;;;;;;2.53;1.77;;;19.50;60.30;;;19.10;52.88;97861.50;5048748;28;20473;-72
2023/07/13 04:51:02;;;;;;;2.57;1.60;;;19.40;60.20;;;19.34;52.59;97852.72;5033515;28;20454;-71
2023/07/13 04:53:30;;;;;;;1.53;1.40;;;19.50;60.20;;;19.46;52.02;97850.47;5028660;28;20490;-73
2023/07/13 04:55:58;;;;;;;2.90;1.83;;;19.60;60.00;;;19.84;50.93;97860.25;5028171;28;20446;-71
2023/07/13 04:58:25;;;;;;;1.73;1.60;;;20.00;59.60;;;20.37;49.50;97854.25;5049656;28;20522;-73
2023/07/13 05:00:52;;;;;;;2.10;1.20;;;20.40;59.00;;;21.16;47.20;97827.84;5039931;28;20454;-72
2023/07/13 05:03:21;;;;;;;1.80;1.30;;;21.30;58.30;;;21.37;47.29;97865.00;5041092;28;20445;-71
2023/07/13 05:06:01;;;;;;;1.50;1.40;;;21.50;57.50;;;20.82;48.05;97867.97;5045167;28;20449;-71
2023/07/13 05:08:29;;;;;;;1.50;1.40;;;21.20;57.30;;;20.32;49.27;97876.22;5043841;28;20477;-72
2023/07/13 05:10:56;;;;;;;1.50;1.27;;;20.70;57.70;;;20.35;49.44;97881.97;5036956;28;20446;-73
2023/07/13 05:13:24;;;;;;;1.53;1.43;;;20.50;58.10;;;20.94;48.04;97878.59;5032001;28;20994;-72
2023/07/13 05:15:57;;;;;;;2.07;1.87;;;20.90;57.70;;;21.19;47.45;97883.03;5033284;28;20442;-72
2023/07/13 05:18:26;;;;;;;1.20;1.10;;;21.30;57.30;;;20.80;48.02;97883.88;5028393;28;20477;-74
2023/07/13 05:21:00;;;;;;;1.60;1.50;;;21.10;57.30;;;20.23;48.82;97871.34;5040685;28;20451;-72
2023/07/13 05:23:27;;;;;;;2.03;1.20;;;20.80;57.20;;;20.37;48.94;97892.66;5035909;28;20450;-71
2023/07/13 05:25:55;;;;;;;3.20;1.63;;;20.70;57.30;;;20.29;49.38;97888.59;5026783;28;21108;-72
2023/07/13 05:28:22;;;;;;;1.33;1.17;;;20.40;57.70;;;21.52;46.57;97885.19;5037383;28;20477;-73
2023/07/13 05:30:51;;;;;;;3.40;1.43;;;21.40;57.20;;;21.87;45.33;97890.63;5039714;28;20508;-75
2023/07/13 05:33:18;;;;;;;2.90;1.87;;;22.10;56.00;;;22.13;45.10;97895.81;5034889;28;20455;-72
2023/07/13 05:35:47;;;;;;;2.20;1.30;;;22.40;55.90;;;22.84;43.41;97889.63;5034736;28;20463;-72
2023/07/13 05:38:15;;;;;;;1.37;1.30;;;22.90;55.10;;;22.72;43.03;97882.63;5027758;28;20447;-72
2023/07/13 05:40:44;;;;;;;2.00;1.30;;;23.20;54.60;;;23.38;42.05;97881.84;5027103;28;20457;-73
2023/07/13 05:43:12;;;;;;;1.57;1.47;;;23.40;54.20;;;23.90;40.88;97886.41;5028177;28;20446;-72
2023/07/13 05:45:39;;;;;;;1.33;1.20;;;24.00;53.70;;;23.55;41.58;97888.72;5028572;28;20446;-72
2023/07/13 05:48:06;;;;;;;3.80;1.53;;;23.80;53.60;;;22.52;42.91;97871.94;5026406;28;20453;-74
2023/07/13 05:50:33;;;;;;;1.90;1.07;;;23.40;53.20;;;22.32;44.13;97907.66;5026613;28;20460;-73
2023/07/13 05:53:02;;;;;;;1.70;1.60;;;22.60;54.10;;;21.22;46.18;97900.84;5028419;28;20947;-73
2023/07/13 05:55:29;;;;;;;4.30;1.10;;;21.70;54.40;;;20.80;46.88;97903.94;5037899;28;20446;-70
2023/07/13 05:57:57;;;;;;;1.60;1.30;;;21.20;55.00;;;20.59;47.83;97907.88;5026031;28;20451;-72
2023/07/13 06:00:25;;;;;;;1.67;1.27;;;20.80;55.50;;;21.09;46.96;97907.84;5023238;28;20480;-72
2023/07/13 06:02:52;;;;;;;1.70;1.30;;;21.10;55.80;;;21.74;45.64;97909.44;5025268;28;20534;-71
2023/07/13 06:05:20;;;;;;;1.63;1.30;;;21.80;55.30;;;21.28;46.38;97910.72;5033347;28;20453;-71
2023/07/13 06:07:47;;;;;;;1.77;1.50;;;21.50;55.10;;;21.68;45.16;97888.63;5025955;28;20450;-73
2023/07/13 06:10:16;;;;;;;1.93;1.30;;;21.90;55.00;;;22.62;43.48;97911.13;5027087;28;20475;-72
2023/07/13 06:12:43;;;;;;;2.10;1.47;;;22.50;54.60;;;22.27;43.67;97915.16;5033852;28;20531;-74
2023/07/13 06:15:10;;;;;;;1.43;1.20;;;22.50;54.00;;;21.22;45.79;97915.41;5064892;28;20459;-74
2023/07/13 06:17:38;;;;;;;1.80;1.07;;;21.80;53.90;;;20.31;47.69;97919.28;5061090;28;20809;-73
2023/07/13 06:20:08;;;;;;;1.30;1.20;;;20.80;54.70;;;19.79;49.11;97922.22;5058665;28;20453;-70
2023/07/13 06:22:35;;;;;;;3.90;1.47;;;20.20;55.60;;;19.89;49.62;97924.09;5046581;28;20518;-72
2023/07/13 06:25:03;;;;;;;1.80;1.33;;;20.00;56.40;;;20.05;48.88;97930.38;5025525;28;20477;-72
2023/07/13 06:27:31;;;;;;;1.40;1.30;;;20.20;56.30;;;20.77;47.33;97909.16;5034352;28;20466;-70
2023/07/13 06:29:58;;;;;;;2.33;1.30;;;20.90;56.00;;;20.73;47.04;97919.88;5032105;28;20531;-71
2023/07/13 06:32:25;;;;;;;2.60;1.87;;;21.00;55.40;;;20.70;47.56;97925.94;5027142;28;20473;-74
2023/07/13 06:34:53;;;;;;;2.93;1.37;;;20.90;55.60;;;20.49;47.99;97919.75;5026397;28;20540;-71
2023/07/13 06:37:20;;;;;;;1.90;1.20;;;20.70;55.90;;;20.46;48.66;97925.81;5029649;28;20464;-71
2023/07/13 06:39:48;;;;;;;1.47;1.07;;;20.60;56.20;;;20.30;47.88;97903.09;5027269;28;20450;-72
2023/07/13 06:42:17;;;;;;;4.37;1.27;;;20.70;55.70;;;20.48;47.96;97937.31;5048545;28;20450;-72
2023/07/13 06:44:45;;;;;;;1.37;1.27;;;20.60;55.70;;;20.41;48.04;97936.81;5026855;28;20457;-73
2023/07/13 06:47:13;;;;;;;1.23;1.17;;;20.60;55.70;;;20.48;47.86;97935.41;5026696;28;20495;-72
2023/07/13 06:49:41;;;;;;;3.80;1.27;;;20.60;55.80;;;20.07;48.56;97950.09;5032967;28;21101;-74
2023/07/13 06:52:09;;;;;;;1.50;1.10;;;20.50;55.80;;;19.93;48.98;97946.31;5040681;28;20449;-73
2023/07/13 06:54:36;;;;;;;1.20;1.10;;;20.20;56.00;;;19.70;49.00;97885.50;5025910;28;20457;-71
2023/07/13 06:57:05;;;;;;;1.30;1.20;;;20.30;56.20;;;20.46;48.06;97934.03;5032978;28;20459;-74
2023/07/13 06:59:34;;;;;;;2.33;1.40;;;20.50;56.30;;;20.48;47.67;97956.53;5028130;28;20457;-74
2023/07/13 07:02:03;;;;;;;1.80;1.30;;;20.80;55.80;;;20.52;48.35;97954.84;5024047;28;20607;-73
2023/07/13 07:04:30;;;;;;;2.13;1.00;;;20.70;56.10;;;20.78;47.71;97954.72;5027280;28;20472;-72
2023/07/13 07:06:57;;;;;;;1.93;1.10;;;20.90;56.10;;;20.66;47.58;97955.06;5024213;28;20855;-73
2023/07/13 07:09:25;;;;;;;1.57;1.30;;;20.90;55.90;;;20.78;47.50;97960.19;5025900;28;20475;-71
2023/07/13 07:11:52;;;;;;;2.10;1.90;;;20.90;56.00;;;21.30;46.65;97965.34;5023250;28;20458;-73
2023/07/13 07:14:19;;;;;;;1.20;1.10;;;21.30;55.80;;;21.31;46.03;97967.00;5025692;28;20445;-71
2023/07/13 07:16:46;;;;;;;1.80;1.00;;;21.40;55.60;;;21.27;46.26;97968.66;5028910;28;20532;-73
2023/07/13 07:19:15;;;;;;;5.50;1.30;;;21.40;55.10;;;20.86;46.58;97956.06;5030747;28;21067;-72
2023/07/13 07:21:42;;;;;;;1.80;1.03;;;21.20;55.00;;;20.97;46.53;97956.81;5025493;28;20460;-72
2023/07/13 07:24:09;;;;;;;1.70;1.20;;;21.20;55.40;;;21.06;46.61;97966.09;5025004;28;20454;-71
2023/07/13 07:26:36;;;;;;;2.43;1.40;;;21.10;55.40;;;21.18;46.68;97958.31;5030701;28;20457;-72
2023/07/13 07:29:03;;;;;;;2.10;1.30;;;21.30;55.50;;;21.60;45.67;97955.19;5041825;28;20474;-74
2023/07/13 07:31:31;;;;;;;1.30;1.20;;;21.50;55.30;;;21.87;45.39;97978.59;5023118;28;20450;-74
2023/07/13 07:33:58;;;;;;;1.60;1.20;;;21.80;55.40;;;21.99;44.84;97970.78;5041346;28;20875;-73
2023/07/13 07:36:27;;;;;;;2.57;1.30;;;21.90;55.00;;;21.62;45.38;97978.53;5024781;28;20447;-72
2023/07/13 07:38:54;;;;;;;1.97;1.30;;;21.80;54.70;;;21.82;45.08;97971.22;5042410;28;21160;-73
2023/07/13 07:41:22;;;;;;;1.63;1.20;;;21.90;54.90;;;21.93;44.64;97986.50;5042440;28;20446;-72
2023/07/13 07:43:49;;;;;;;2.03;1.47;;;22.10;54.50;;;21.46;44.22;97946.81;5025484;28;20446;-74
2023/07/13 07:46:16;;;;;;;3.17;1.10;;;21.90;54.00;;;21.28;45.36;97982.13;5063285;28;20492;-72
2023/07/13 07:48:44;;;;;;;2.87;1.00;;;21.50;54.30;;;21.16;45.72;97977.00;5041472;28;20455;-72
2023/07/13 07:51:11;;;;;;;4.07;1.50;;;21.40;54.20;;;21.38;45.15;97994.97;5024020;28;20473;-74
2023/07/13 07:53:40;;;;;;;1.67;1.50;;;21.50;54.40;;;21.39;45.16;97985.63;5022967;28;20447;-72
2023/07/13 07:56:07;;;;;;;1.97;1.70;;;21.50;54.40;;;21.30;43.75;97919.47;5023493;28;20476;-75
2023/07/13 07:58:34;;;;;;;2.33;1.47;;;21.80;54.00;;;21.60;44.43;97997.25;5024568;28;20456;-72
2023/07/13 08:01:06;;;;;;;1.67;1.50;;;21.70;53.80;;;21.64;44.17;97992.81;5033972;28;20465;-72
2023/07/13 08:03:34;;;;;;;2.10;1.27;;;21.70;53.70;;;21.63;44.21;98002.16;5030269;28;20503;-72
2023/07/13 08:06:01;;;;;;;2.03;1.30;;;21.80;53.70;;;21.83;43.24;97999.56;5026929;28;20926;-72
2023/07/13 08:08:28;;;;;;;1.57;1.37;;;21.90;53.20;;;21.85;43.58;97998.16;5025659;28;20458;-72
2023/07/13 08:10:57;;;;;;;1.03;1.03;;;21.90;53.20;;;22.27;42.92;97995.78;5025085;28;20485;-74
2023/07/13 08:13:24;;;;;;;2.40;1.43;;;22.30;53.40;;;22.14;42.94;97996.47;5065446;28;21143;-73
2023/07/13 08:15:51;;;;;;;2.30;1.20;;;22.30;53.10;;;22.31;42.52;97999.56;5040625;28;20504;-74
2023/07/13 08:18:19;;;;;;;1.97;1.40;;;22.30;52.80;;;22.27;41.23;97998.53;5023686;28;20463;-72
2023/07/13 08:20:46;;;;;;;1.63;1.40;;;22.40;52.10;;;22.02;41.56;97992.19;5034163;28;20455;-72
2023/07/13 08:23:14;;;;;;;2.87;1.10;;;22.20;51.80;;;22.02;40.49;97997.69;5030380;28;20442;-73
2023/07/13 08:25:41;;;;;;;2.20;1.10;;;22.10;50.90;;;21.94;40.89;97995.59;5058241;28;20457;-72
2023/07/13 08:28:09;;;;;;;1.30;1.20;;;22.20;51.20;;;22.15;40.89;98003.63;5035547;28;20546;-74
2023/07/13 08:30:37;;;;;;;1.97;1.30;;;22.20;51.40;;;22.17;40.43;98015.16;5049474;28;20960;-73
2023/07/13 08:33:04;;;;;;;2.57;1.20;;;22.30;51.00;;;22.20;39.77;98009.06;5022541;28;20449;-74
2023/07/13 08:35:32;;;;;;;1.33;1.17;;;22.30;50.40;;;22.33;39.81;98005.59;5026213;28;20842;-74
2023/07/13 08:38:00;;;;;;;3.10;1.63;;;22.30;50.50;;;22.23;38.39;98003.00;5032145;28;20943;-73
2023/07/13 08:40:29;;;;;;;1.13;0.83;;;22.40;49.80;;;22.36;37.49;97996.75;5037412;28;20997;-74
2023/07/13 08:42:58;;;;;;;1.57;1.00;;;22.50;48.70;;;22.06;38.31;98001.53;5030097;28;20947;-72
2023/07/13 08:45:44;;;;;;;0.70;0.70;;;22.30;48.90;;;22.12;36.35;98013.25;5029495;28;20448;-72
2023/07/13 08:48:17;;;;;;;1.63;0.80;;;22.30;47.50;;;22.16;35.36;98013.50;5038425;28;20466;-72
2023/07/13 08:50:53;;;;;;;5.50;1.40;;;22.30;46.70;;;21.96;35.77;98003.53;5029577;28;20483;-72
2023/07/13 08:53:22;;;;;;;2.03;1.03;;;22.20;46.50;;;22.17;36.42;98031.66;5033647;28;20454;-72
2023/07/13 08:55:58;;;;;;;1.20;1.00;;;22.30;47.30;;;22.12;36.75;98023.47;5032647;28;20458;-72
2023/07/13 08:58:28;;;;;;;0.80;0.80;;;22.30;47.50;;;22.48;37.06;98037.66;5028694;28;20943;-73
2023/07/13 09:01:16;;;;;;;1.63;0.90;;;22.40;47.90;;;22.36;35.87;98020.72;5019582;28;20504;-73
2023/07/13 09:03:59;;;;;;;0.83;0.83;;;22.50;48.10;;;22.45;35.70;98020.88;5029642;28;20454;-72
2023/07/13 09:06:36;;;;;;;1.00;0.83;;;22.60;47.20;;;22.14;36.45;98021.25;5026719;28;20444;-72
2023/07/13 09:09:11;;;;;;;1.20;0.90;;;22.40;47.20;;;22.08;37.40;98034.22;5034867;28;21033;-73
2023/07/13 09:11:50;;;;;;;1.13;0.90;;;22.30;47.50;;;22.24;36.57;98026.63;5028681;28;20960;-73
2023/07/13 09:14:41;;;;;;;2.33;1.30;;;22.30;47.20;;;22.39;37.48;98024.81;5041747;28;20453;-72
2023/07/13 09:17:17;;;;;;;2.47;1.30;;;22.50;48.10;;;22.82;36.52;98026.78;5037839;28;20540;-73
2023/07/13 09:19:50;;;;;;;1.67;1.07;;;22.80;48.20;;;22.41;36.96;98015.13;5027447;28;20454;-74
2023/07/13 09:22:22;;;;;;;1.87;1.03;;;22.60;47.70;;;22.53;37.31;98028.53;5026159;28;20561;-72
2023/07/13 09:24:59;;;;;;;1.27;1.00;;;22.60;48.00;;;22.96;35.91;98026.88;5050686;28;20458;-74
2023/07/13 09:27:32;;;;;;;2.47;1.07;;;22.90;47.80;;;22.94;36.11;98018.91;5031954;28;20445;-72
2023/07/13 09:30:18;;;;;;;0.83;0.70;;;23.00;47.70;;;22.88;36.14;98040.19;5031247;28;20477;-72
2023/07/13 09:32:53;;;;;;;1.60;1.20;;;23.10;47.20;;;22.81;35.87;98039.72;5025939;28;20488;-72
2023/07/13 09:35:27;;;;;;;1.63;1.33;;;23.00;47.40;;;22.72;36.26;98052.53;5035824;28;20471;-72
2023/07/13 09:38:00;;;;;;;2.97;1.30;;;22.80;47.10;;;22.76;35.91;98031.53;5018685;28;20456;-73
2023/07/13 09:40:40;;;;;;;3.53;1.23;;;22.80;47.00;;;23.05;35.77;98034.19;5027686;28;20961;-76
2023/07/13 09:43:11;;;;;;;2.10;1.00;;;23.00;47.50;;;22.99;34.46;98023.53;5039871;28;20460;-75
2023/07/13 09:45:39;;;;;;;4.43;1.23;;;23.10;46.00;;;23.28;33.91;98030.88;5030647;28;20460;-71
2023/07/13 09:48:13;;;;;;;3.23;1.03;;;23.30;45.90;;;23.31;33.39;98013.72;5027538;28;20452;-73
2023/07/13 09:50:41;;;;;;;1.47;0.90;;;23.40;45.30;;;23.44;33.39;98029.50;5027993;28;20482;-73
2023/07/13 09:53:14;;;;;;;1.50;0.97;;;23.50;45.40;;;23.28;32.55;98030.88;5027232;28;20538;-73
2023/07/13 09:55:44;;;;;;;1.23;1.00;;;23.30;44.80;;;23.15;31.78;98024.94;5028067;28;20477;-72
2023/07/13 09:58:15;;;;;;;1.50;1.03;;;23.30;44.10;;;22.89;32.26;98025.31;5022685;28;20443;-72
2023/07/13 10:00:44;;;;;;;1.20;0.83;;;23.10;43.70;;;22.91;32.47;98017.56;5035224;28;21014;-71
2023/07/13 10:03:21;;;;;;;1.47;1.07;;;23.10;44.00;;;22.76;32.83;98037.06;5031093;28;20529;-74
2023/07/13 10:05:52;;;;;;;2.13;0.90;;;23.00;44.00;;;22.80;33.10;98026.28;5029064;28;20462;-72
2023/07/13 10:08:27;;;;;;;1.03;0.83;;;22.90;44.40;;;23.05;33.22;98022.34;5026993;28;20452;-73
2023/07/13 10:11:00;;;;;;;1.90;0.80;;;23.00;44.80;;;23.53;32.70;98015.84;5027527;28;20482;-72
2023/07/13 10:13:36;;;;;;;1.97;1.00;;;23.40;44.70;;;23.37;32.21;98028.25;5034557;28;20534;-71
2023/07/13 10:16:06;;;;;;;1.60;1.07;;;23.40;44.10;;;23.37;32.03;98029.03;5028765;28;20452;-75
2023/07/13 10:18:45;;;;;;;0.87;0.87;;;23.50;44.00;;;23.41;32.05;98015.50;5026205;28;20447;-73
2023/07/13 10:21:16;;;;;;;1.47;1.10;;;23.50;44.20;;;23.39;32.17;98046.09;5024883;28;20484;-72
2023/07/13 10:23:46;;;;;;;2.27;1.00;;;23.50;44.10;;;23.33;32.80;98028.03;5034842;28;20452;-74
2023/07/13 10:26:20;;;;;;;1.60;1.17;;;23.40;44.50;;;23.14;32.96;98023.31;5026633;28;20541;-72
2023/07/13 10:28:55;;;;;;;2.17;1.10;;;23.30;44.20;;;23.34;33.09;98043.44;5036981;28;20799;-73